Berja, Spain
Current Conditions -  °F | °C
As of 12:00 PM on Wednesday 22 Oct 2014 (Local Time) from LEAM Reporting Station
Haze Haze  
Wind Chill: 70°   Ceiling: Unl
Heat Index: 70°   Visibility: 0.87mi
Dew Point: 68°   Wind: 2mph
Humidity: 94%   Direction: NA
Pressure: 30.18"   Gusts: NA
Location:  36.85°N, 2.95°W
Report Text: LEAM 221000Z VRB02KT 1400 BR SCT001 21/20 Q1022
Loading
Personal Weather Stations






























Interactive Weather Map
Tropical Storm Tracking
New forecast layout! Learn more

10-Day Weather Forecast

Advertisements
Track Severe Weather on mobile